Buoy 13526

sailwx.info

Track history (hours):
 
Tides and Currents Weather Stations Pressure Air Temp Water Temp Dewpoint Dewpoint Depression Visibility Wind Speed Wind Dir Waves Ship Positions

Drifting buoy 13526

Last reported at 2014-Sep-21 18:26 UTC. Time now 2014-Sep-21 20:14 UTC.
Position N 27°02' W 038°02'.

Water temperature 28.2 ° C

Date/timePositionNaut miles runAvg speedWind from/ knotsBaromVisibWave heightAir tempDewpointWater temp
2014-Sep-21 18:26N 27°02' W 038°02'1 1.5 28.2
2014-Sep-21 18:00N 27°03' W 038°02'1 5.2 28.2
2014-Sep-21 17:54N 27°02' W 038°02'1 1.1 28.2
2014-Sep-21 17:26N 27°03' W 038°02'0 0.1 28.1
2014-Sep-21 15:48N 27°03' W 038°02'0 0.2 27.9
2014-Sep-21 14:07N 27°03' W 038°02'0 0.0 28.5
2014-Sep-21 14:04N 27°03' W 038°02'0 0.0 28.5
2014-Sep-21 13:20N 27°03' W 038°02'0 0.6 27.9
2014-Sep-21 13:15N 27°03' W 038°02'0 0.2 27.9
2014-Sep-21 12:24N 27°03' W 038°01'0 0.0 27.9
2014-Sep-21 12:18N 27°03' W 038°01'0 0.0 27.9
2014-Sep-21 11:40N 27°03' W 038°01'0 2.4 27.5
2014-Sep-21 11:35N 27°03' W 038°01'0 4.9 27.5
2014-Sep-21 11:32N 27°03' W 038°01'0 0.0 27.5
2014-Sep-21 10:46N 27°03' W 038°01'113.4 27.4
2014-Sep-21 10:42N 27°04' W 038°02'0 0.0 27.4
2014-Sep-21 10:00N 27°04' W 038°02'1 0.5 27.4
2014-Sep-21 08:54N 27°03' W 038°02'0 1.0 27.4
2014-Sep-21 08:47N 27°03' W 038°02'0 0.3 27.4
2014-Sep-21 08:17N 27°03' W 038°02'0 2.7 27.3
2014-Sep-21 08:10N 27°03' W 038°02'0 0.0 27.4
2014-Sep-21 07:10N 27°03' W 038°02'0 0.2 27.4
2014-Sep-21 06:42N 27°03' W 038°02'0 2.1 27.4
2014-Sep-21 06:36N 27°03' W 038°02'0 0.3 27.4
2014-Sep-21 06:07N 27°03' W 038°02'110.5 27.4
2014-Sep-21 06:03N 27°03' W 038°01'111.0 27.4
2014-Sep-21 05:59N 27°02' W 038°02'0 0.0 27.4
2014-Sep-21 04:24N 27°02' W 038°02'1 5.5 27.4
2014-Sep-21 04:17N 27°02' W 038°01'0 0.0 27.4
2014-Sep-21 01:40N 27°02' W 038°01'0 0.0 27.4
2014-Sep-21 00:54N 27°02' W 038°01'0 0.5 27.5
2014-Sep-21 00:05N 27°03' W 038°01'0 0.5 27.5
2014-Sep-20 23:16N 27°03' W 038°01'1 9.7 27.6
2014-Sep-20 23:10N 27°03' W 038°03'0 0.0 27.6
2014-Sep-20 22:49N 27°03' W 038°03'0 0.0 27.6
2014-Sep-20 22:24N 27°03' W 038°03'111.3 27.6
2014-Sep-20 22:19N 27°04' W 038°02'114.8 27.6
2014-Sep-20 22:13N 27°02' W 038°01'0 0.3
2014-Sep-20 20:32N 27°03' W 038°01'0 0.6 27.7
2014-Sep-20 19:52N 27°02' W 038°01'0 1.1 27.9
2014-Sep-20 19:34N 27°02' W 038°01'1 0.8 27.9
2014-Sep-20 18:52N 27°02' W 038°02'1 1.0 27.9
2014-Sep-20 18:10N 27°02' W 038°01'1 1.4 27.9
2014-Sep-20 17:39N 27°02' W 038°01'0 0.3 28.0
2014-Sep-20 15:56N 27°02' W 038°00'0 0.3 27.7
2014-Sep-20 14:24N 27°02' W 038°00'0 0.4 27.6
2014-Sep-20 14:16N 27°02' W 037°60'0 0.0 27.6
2014-Sep-20 13:40N 27°02' W 037°60'0 1.4 27.6
2014-Sep-20 13:32N 27°02' W 037°60'0 0.0 27.6
2014-Sep-20 12:44N 27°02' W 037°60'0 6.0 27.4
2014-Sep-20 12:41N 27°02' W 037°60'0 0.0 27.4
2014-Sep-20 12:38N 27°02' W 037°60'0 0.0 27.4
2014-Sep-20 11:55N 27°02' W 037°60'0 9.6 27.4
2014-Sep-20 11:52N 27°02' W 037°60'0 0.1 27.4
2014-Sep-20 11:05N 27°02' W 037°59'112.9 27.3
2014-Sep-20 11:02N 27°02' W 037°60'0 0.1 27.3
2014-Sep-20 09:16N 27°02' W 037°60'0 0.0 27.3
2014-Sep-20 09:08N 27°02' W 037°60'0 0.8 27.3
2014-Sep-20 08:54N 27°02' W 037°60'0 0.3 27.3
2014-Sep-20 08:24N 27°02' W 038°00'0 0.5 27.3
2014-Sep-20 07:33N 27°02' W 038°01'0 0.4 27.4
2014-Sep-20 07:15N 27°02' W 038°01'1 1.8 27.4
2014-Sep-20 06:49N 27°02' W 037°60'0 3.2 27.4
2014-Sep-20 06:44N 27°02' W 037°60'0 5.8 27.4
2014-Sep-20 06:41N 27°02' W 037°60'0 0.0 27.4
2014-Sep-20 06:18N 27°02' W 037°60'0 0.2 27.4
2014-Sep-20 04:35N 27°02' W 037°59'0 4.4 27.4
2014-Sep-20 04:31N 27°02' W 037°59'0 0.0 27.4
2014-Sep-20 02:53N 27°02' W 037°59'0 0.0 27.4
2014-Sep-20 00:24N 27°02' W 037°59'0 0.1 27.5
2014-Sep-19 23:38N 27°02' W 037°59'0 3.4 27.6
2014-Sep-19 23:32N 27°02' W 037°60'0 0.0 27.6
2014-Sep-19 22:46N 27°02' W 037°60'0 3.4 27.6
2014-Sep-19 22:40N 27°02' W 037°59'0 0.0 27.6
2014-Sep-19 22:35N 27°02' W 037°59'1 0.3 27.6
2014-Sep-19 20:55N 27°01' W 037°59'0 0.2 27.7
2014-Sep-19 20:03N 27°02' W 037°59'0 0.0 27.8
2014-Sep-19 19:56N 27°02' W 037°59'0 0.3 27.9
2014-Sep-19 19:16N 27°02' W 037°59'0 0.0 27.9
2014-Sep-19 18:24N 27°02' W 037°59'1 2.0 28.0
2014-Sep-19 17:50N 27°01' W 037°60'0 1.3 28.1
2014-Sep-19 17:31N 27°01' W 038°00'0 0.0 28.1
2014-Sep-19 16:10N 27°01' W 038°00'1 0.8 27.9
2014-Sep-19 14:27N 27°02' W 037°59'0 0.0 27.7
2014-Sep-19 13:57N 27°02' W 037°59'0 0.0
2014-Sep-19 12:23N 27°02' W 037°59'1 0.6 27.4
2014-Sep-19 11:25N 27°02' W 037°58'123.9 27.3
2014-Sep-19 11:22N 27°03' W 037°57'0 0.0 27.3
2014-Sep-19 09:41N 27°03' W 037°57'111.0 27.3
2014-Sep-19 09:36N 27°02' W 037°58'0 1.5 27.3
2014-Sep-19 09:25N 27°02' W 037°58'0 0.5 27.3
2014-Sep-19 08:39N 27°02' W 037°58'0 3.9 27.3
2014-Sep-19 08:35N 27°02' W 037°58'0 0.0 27.3
2014-Sep-19 07:46N 27°02' W 037°58'0 0.1 27.3
2014-Sep-19 07:04N 27°02' W 037°58'0 2.4 27.3
2014-Sep-19 06:57N 27°02' W 037°58'0 0.7 27.3
2014-Sep-19 06:26N 27°02' W 037°58'1 6.8 27.3
2014-Sep-19 06:21N 27°02' W 037°57'1 0.4 27.3
2014-Sep-19 04:51N 27°02' W 037°58'1 5.6 27.3
2014-Sep-19 04:45N 27°02' W 037°57'0 0.0 27.3
2014-Sep-19 04:39N 27°02' W 037°57'0 0.0 27.3
2014-Sep-19 03:05N 27°02' W 037°57'0 0.0 27.4
2014-Sep-19 00:46N 27°02' W 037°57'0 0.5 27.4
2014-Sep-18 23:55N 27°02' W 037°57'112.3 27.4
2014-Sep-18 23:52N 27°02' W 037°57'0 0.0 27.4
2014-Sep-18 23:06N 27°02' W 037°57'0 1.2 27.5
2014-Sep-18 23:00N 27°02' W 037°57'0 0.5 27.5
2014-Sep-18 22:15N 27°02' W 037°57'1 8.7 27.6
2014-Sep-18 22:11N 27°02' W 037°57'1 0.7 27.6
2014-Sep-18 21:19N 27°02' W 037°58'0 0.0 27.6
2014-Sep-18 20:26N 27°02' W 037°58'0 0.0 27.6
2014-Sep-18 20:11N 27°02' W 037°58'0 0.0 27.6
2014-Sep-18 19:40N 27°02' W 037°58'0 0.0 27.7
2014-Sep-18 18:34N 27°02' W 037°58'2 4.0 27.9
2014-Sep-18 17:59N 27°02' W 037°55'122.2 27.8
2014-Sep-18 17:56N 27°02' W 037°57'1 1.0 27.8
2014-Sep-18 16:52N 27°02' W 037°55'0 0.3 27.8
2014-Sep-18 16:21N 27°02' W 037°56'0 0.1 27.8
2014-Sep-18 14:40N 27°02' W 037°56'0 0.2 27.6
2014-Sep-18 12:37N 27°02' W 037°55'0 1.2 27.4
2014-Sep-18 12:33N 27°02' W 037°55'0 0.1 27.4
2014-Sep-18 11:47N 27°02' W 037°55'0 1.7 27.4
2014-Sep-18 11:40N 27°02' W 037°55'0 0.0
2014-Sep-18 11:02N 27°02' W 037°55'0 2.0 27.3
2014-Sep-18 10:56N 27°01' W 037°55'1 0.9 27.3
2014-Sep-18 10:02N 27°02' W 037°54'1 6.7 27.3
2014-Sep-18 09:55N 27°01' W 037°55'1 0.8 27.3
2014-Sep-18 08:53N 27°02' W 037°54'0 2.8 27.3
2014-Sep-18 08:46N 27°02' W 037°54'0 0.8 27.3
2014-Sep-18 08:18N 27°02' W 037°54'0 0.3 27.3
2014-Sep-18 07:11N 27°02' W 037°54'1 1.2 27.4
2014-Sep-18 06:38N 27°02' W 037°54'0 0.0 27.4
2014-Sep-18 05:29N 27°02' W 037°54'0 0.0 27.4
2014-Sep-18 04:56N 27°02' W 037°54'1 6.6 27.4
2014-Sep-18 04:51N 27°03' W 037°53'0 0.0 27.4
2014-Sep-18 03:18N 27°03' W 037°53'0 0.0 27.4
2014-Sep-18 03:10N 27°03' W 037°53'0 0.0 27.4
2014-Sep-18 01:03N 27°03' W 037°53'115.7 27.4
2014-Sep-18 01:01N 27°02' W 037°53'0 0.1 27.4
2014-Sep-18 00:18N 27°02' W 037°53'0 0.0 27.4
2014-Sep-17 23:24N 27°02' W 037°53'0 0.0
2014-Sep-17 23:23N 27°02' W 037°53'0 0.0 27.5
2014-Sep-17 23:21N 27°02' W 037°53'123.4 27.5
2014-Sep-17 23:18N 27°03' W 037°54'0 0.0 27.5
2014-Sep-17 22:43N 27°03' W 037°54'217.5 27.5
2014-Sep-17 22:37N 27°02' W 037°52'0 0.0 27.5
2014-Sep-17 22:32N 27°02' W 037°52'1 1.1 27.5
2014-Sep-17 21:42N 27°01' W 037°52'0 0.0 27.5
2014-Sep-17 20:56N 27°01' W 037°52'1 2.5
2014-Sep-17 20:22N 27°02' W 037°54'0 0.0 27.6
2014-Sep-17 20:05N 27°02' W 037°54'0 0.0 27.6
2014-Sep-17 18:45N 27°02' W 037°54'0 0.0 27.6
2014-Sep-17 18:25N 27°02' W 037°54'1 2.8 27.6
2014-Sep-17 18:10N 27°01' W 037°53'0 0.2 27.6
2014-Sep-17 17:04N 27°01' W 037°53'1 2.1 27.6
2014-Sep-17 16:34N 27°01' W 037°52'1 0.6 27.6
2014-Sep-17 14:51N 27°00' W 037°51'0 0.0 27.6
2014-Sep-17 13:49N 27°00' W 037°51'0 0.0 27.5
2014-Sep-17 13:02N 27°00' W 037°51'1 0.8 27.5
2014-Sep-17 12:10N 27°00' W 037°51'0 0.0 27.5
2014-Sep-17 12:08N 27°00' W 037°51'0 2.2 27.5
2014-Sep-17 12:02N 27°00' W 037°50'0 0.0 27.5
2014-Sep-17 11:21N 27°00' W 037°50'117.7 27.4
2014-Sep-17 11:16N 27°00' W 037°49'0 0.1 27.4
2014-Sep-17 09:01N 27°00' W 037°49'0 0.8 27.5
2014-Sep-17 08:49N 27°00' W 037°49'0 3.2 27.5
2014-Sep-17 08:46N 27°00' W 037°49'0 0.0 27.5
2014-Sep-17 07:23N 27°00' W 037°49'0 5.8 27.5
2014-Sep-17 07:18N 27°00' W 037°48'0 3.2 27.5
2014-Sep-17 07:09N 27°00' W 037°49'029.1 27.5
2014-Sep-17 07:08N 27°00' W 037°48'0 0.0 27.5
2014-Sep-17 06:48N 27°00' W 037°48'0 0.1 27.5
2014-Sep-17 05:40N 27°00' W 037°48'0 0.9 27.6
2014-Sep-17 05:10N 27°00' W 037°49'1 6.0 27.6
2014-Sep-17 05:02N 27°00' W 037°48'0 0.0 27.6
2014-Sep-17 03:28N 27°00' W 037°48'0 0.0 27.6
2014-Sep-17 03:22N 27°00' W 037°48'0 0.0 27.6
2014-Sep-17 01:26N 27°00' W 037°48'0 0.0 27.6
2014-Sep-17 01:21N 27°00' W 037°48'0 0.0 27.6
2014-Sep-16 23:45N 27°00' W 037°48'0 0.3 27.6
2014-Sep-16 22:52N 26°60' W 037°48'0 0.0
2014-Sep-16 22:05N 26°60' W 037°48'0 7.2 27.6
2014-Sep-16 22:02N 27°00' W 037°48'0 0.0 27.6
2014-Sep-16 21:39N 27°00' W 037°48'1 1.1 27.6
2014-Sep-16 20:30N 26°59' W 037°47'0 0.0 27.6
2014-Sep-16 19:52N 26°59' W 037°47'0 0.2 27.6
2014-Sep-16 18:56N 26°59' W 037°47'0 1.7 27.7
2014-Sep-16 18:50N 26°59' W 037°47'1 0.5 27.7
2014-Sep-16 17:15N 26°58' W 037°47'0 0.0 27.7
2014-Sep-16 16:44N 26°58' W 037°47'2 1.3 27.7
2014-Sep-16 15:00N 26°57' W 037°45'0 0.0 27.6
2014-Sep-16 14:08N 26°57' W 037°45'0 0.0 27.6
2014-Sep-16 13:24N 26°57' W 037°45'0 0.0 27.6
2014-Sep-16 13:21N 26°57' W 037°45'1 0.9 27.6
2014-Sep-16 12:25N 26°57' W 037°45'112.9 27.6
2014-Sep-16 12:22N 26°56' W 037°44'1 1.3 27.6
2014-Sep-16 11:36N 26°56' W 037°45'0 0.0 27.6
2014-Sep-16 10:47N 26°56' W 037°45'120.4 27.6
2014-Sep-16 10:44N 26°56' W 037°44'0 0.0 27.6
2014-Sep-16 09:20N 26°56' W 037°44'1 3.9 27.6
2014-Sep-16 09:09N 26°56' W 037°44'0 0.0 27.6
2014-Sep-16 07:40N 26°56' W 037°44'0 3.6 27.6
2014-Sep-16 07:34N 26°56' W 037°44'119.6 27.6
2014-Sep-16 07:31N 26°56' W 037°43'0 0.0 27.6
2014-Sep-16 05:53N 26°56' W 037°43'0 3.6 27.6
2014-Sep-16 05:45N 26°56' W 037°42'0 0.0
2014-Sep-16 05:19N 26°56' W 037°42'1 9.6 27.7
2014-Sep-16 05:14N 26°55' W 037°42'0 0.0 27.7
2014-Sep-16 03:38N 26°55' W 037°42'1 0.4 27.7
2014-Sep-16 01:43N 26°56' W 037°41'0 0.0 27.7
2014-Sep-16 00:57N 26°56' W 037°41'0 0.0 27.7
2014-Sep-16 00:54N 26°56' W 037°41'0 0.0 27.7
2014-Sep-16 00:08N 26°56' W 037°41'1 0.9 27.7
2014-Sep-15 23:19N 26°55' W 037°41'2 9.5 27.8
2014-Sep-15 23:08N 26°56' W 037°43'0 0.0 27.8
2014-Sep-15 22:27N 26°56' W 037°43'232.1 27.8
2014-Sep-15 22:24N 26°56' W 037°41'0 0.0 27.8
2014-Sep-15 22:10N 26°56' W 037°41'0 0.2 27.8
2014-Sep-15 20:53N 26°56' W 037°42'0 0.0 27.9
2014-Sep-15 20:21N 26°56' W 037°42'1 0.7 27.9
2014-Sep-15 19:09N 26°55' W 037°43'110.3 28.0
2014-Sep-15 19:03N 26°55' W 037°42'0 0.0 28.0
2014-Sep-15 17:26N 26°55' W 037°42'0 0.0 28.1
2014-Sep-15 16:54N 26°55' W 037°42'1 0.5 28.1
2014-Sep-15 15:10N 26°54' W 037°42'1 0.5 28.1
2014-Sep-15 13:44N 26°53' W 037°42'0 3.2 28.0
2014-Sep-15 13:41N 26°53' W 037°42'0 0.4 27.9
2014-Sep-15 12:47N 26°53' W 037°41'0 0.2 27.8
2014-Sep-15 12:06N 26°53' W 037°41'0 0.6 27.7
2014-Sep-15 12:01N 26°53' W 037°41'0 3.9 27.7
2014-Sep-15 11:56N 26°53' W 037°41'0 0.0 27.7
2014-Sep-15 11:10N 26°53' W 037°41'0 1.6 27.6
2014-Sep-15 11:06N 26°53' W 037°41'1 0.8 27.6
2014-Sep-15 09:51N 26°52' W 037°41'1 3.6 27.6
2014-Sep-15 09:38N 26°52' W 037°41'114.1 27.6
2014-Sep-15 09:34N 26°52' W 037°40'0 0.0 27.6
2014-Sep-15 09:23N 26°52' W 037°40'0 0.0 27.6
2014-Sep-15 07:56N 26°52' W 037°40'0 0.5 27.6
2014-Sep-15 07:42N 26°52' W 037°39'1 8.5 27.6
2014-Sep-15 07:37N 26°51' W 037°39'0 0.0 27.6
2014-Sep-15 06:30N 26°51' W 037°39'0 0.0 27.7
2014-Sep-15 06:08N 26°51' W 037°39'0 1.1 27.7
2014-Sep-15 06:05N 26°51' W 037°39'0 5.0 27.7
2014-Sep-15 05:59N 26°51' W 037°38'0 0.0 27.7
2014-Sep-15 05:30N 26°51' W 037°38'1 7.6 27.7
2014-Sep-15 05:25N 26°51' W 037°38'0 0.0 27.7
2014-Sep-15 03:53N 26°51' W 037°38'121.6 27.8
2014-Sep-15 03:50N 26°51' W 037°37'0 0.0 27.8
2014-Sep-15 03:46N 26°51' W 037°37'0 0.0 27.8
2014-Sep-15 01:15N 26°51' W 037°37'0 0.0 28.1
2014-Sep-15 00:29N 26°51' W 037°37'0 0.3 28.2
2014-Sep-14 23:40N 26°51' W 037°38'0 0.8 28.2
2014-Sep-14 23:36N 26°51' W 037°38'0 0.4 28.2
2014-Sep-14 22:48N 26°51' W 037°38'213.2 28.2
2014-Sep-14 22:41N 26°51' W 037°36'0 0.5
2014-Sep-14 21:55N 26°51' W 037°37'1 0.8 28.2
2014-Sep-14 21:16N 26°51' W 037°37'1 2.7 28.2
2014-Sep-14 20:56N 26°51' W 037°36'1 0.7 28.2
2014-Sep-14 19:40N 26°51' W 037°37'0 0.4 28.6
2014-Sep-14 19:20N 26°51' W 037°37'1 0.7 28.6
2014-Sep-14 17:58N 26°50' W 037°37'0 8.0 28.6
2014-Sep-14 17:55N 26°50' W 037°38'0 0.0 28.8
2014-Sep-14 17:39N 26°50' W 037°38'1 1.6 28.9
2014-Sep-14 17:03N 26°49' W 037°38'0 0.0 28.9
2014-Sep-14 15:25N 26°49' W 037°38'2 1.2 28.5
2014-Sep-14 13:56N 26°48' W 037°36'1 0.8
2014-Sep-14 13:10N 26°48' W 037°37'0 0.5 27.7
2014-Sep-14 12:21N 26°48' W 037°36'1 1.3 27.6
2014-Sep-14 11:26N 26°47' W 037°36'0 0.0 27.5
2014-Sep-14 10:35N 26°47' W 037°36'0 0.0 27.5
2014-Sep-14 09:59N 26°47' W 037°36'0 0.2 27.5
2014-Sep-14 08:20N 26°47' W 037°35'0 0.2 27.5
2014-Sep-14 07:54N 26°47' W 037°36'1 0.8 27.5
2014-Sep-14 07:04N 26°46' W 037°35'0 0.7 27.5
2014-Sep-14 06:42N 26°46' W 037°35'0 2.0 27.5
2014-Sep-14 06:38N 26°46' W 037°35'0 0.0 27.5
2014-Sep-14 06:19N 26°46' W 037°35'0 6.7 27.5
2014-Sep-14 06:15N 26°46' W 037°35'110.1 27.5
2014-Sep-14 06:10N 26°46' W 037°35'0 0.3 27.5
2014-Sep-14 05:41N 26°46' W 037°35'111.1 27.5
2014-Sep-14 05:36N 26°46' W 037°34'0 0.0 27.5
2014-Sep-14 04:04N 26°46' W 037°34'0 2.4 27.6
2014-Sep-14 03:57N 26°46' W 037°34'250.6 27.6
2014-Sep-14 03:55N 26°45' W 037°33'0 0.0 27.6
2014-Sep-14 00:48N 26°45' W 037°33'0 0.6 27.6
2014-Sep-14 00:02N 26°45' W 037°32'0 3.3 27.6
2014-Sep-13 23:53N 26°45' W 037°33'0 0.0
2014-Sep-13 23:10N 26°45' W 037°33'0 2.9 27.6
2014-Sep-13 23:05N 26°45' W 037°33'113.6
2014-Sep-13 23:02N 26°45' W 037°32'0 0.0 27.6
2014-Sep-13 22:58N 26°45' W 037°32'0 0.0
2014-Sep-13 22:18N 26°45' W 037°32'0 0.0 27.6
2014-Sep-13 21:33N 26°45' W 037°32'1 0.4 27.6
2014-Sep-13 20:04N 26°45' W 037°33'0 0.0 27.6
2014-Sep-13 19:46N 26°45' W 037°33'0 0.0 27.6
2014-Sep-13 19:31N 26°45' W 037°33'0 0.0 27.6
2014-Sep-13 18:23N 26°45' W 037°33'0 0.0 27.6
2014-Sep-13 18:20N 26°45' W 037°33'1 1.4 27.6
2014-Sep-13 17:51N 26°44' W 037°32'0 0.4 27.6
2014-Sep-13 17:16N 26°44' W 037°32'0 2.8 27.6
2014-Sep-13 17:10N 26°44' W 037°32'1 0.6 27.6
2014-Sep-13 15:36N 26°44' W 037°33'2 0.5 27.6
2014-Sep-13 11:51N 26°42' W 037°31'1 7.2 27.6
2014-Sep-13 11:46N 26°43' W 037°32'1 1.0 27.6
2014-Sep-13 11:05N 26°42' W 037°31'0 8.0 27.6
2014-Sep-13 11:02N 26°43' W 037°31'114.1 27.6
2014-Sep-13 10:57N 26°42' W 037°30'0 0.1
2014-Sep-13 09:10N 26°42' W 037°31'1 1.5 27.6
2014-Sep-13 08:44N 26°41' W 037°30'0 0.3 27.6
2014-Sep-13 08:02N 26°41' W 037°30'0 0.0 27.6
2014-Sep-13 07:35N 26°41' W 037°30'1 1.2 27.6
2014-Sep-13 07:09N 26°41' W 037°31'2 1.3 27.6
2014-Sep-13 05:52N 26°41' W 037°29'1 8.3 27.6
2014-Sep-13 05:47N 26°40' W 037°29'0 0.0 27.6
2014-Sep-13 04:11N 26°40' W 037°29'218.9 27.6
2014-Sep-13 04:06N 26°39' W 037°29'0 0.0 27.6
2014-Sep-13 01:08N 26°39' W 037°29'123.5 27.7
2014-Sep-13 01:05N 26°38' W 037°28'0 0.6 27.7
2014-Sep-13 00:22N 26°38' W 037°28'0 0.0 27.7
2014-Sep-12 23:30N 26°38' W 037°28'224.7 27.7
2014-Sep-12 23:24N 26°38' W 037°25'0 0.0 27.7
2014-Sep-12 23:21N 26°38' W 037°25'0 0.0 27.7
2014-Sep-12 22:41N 26°38' W 037°25'0 0.5 27.7
2014-Sep-12 21:57N 26°38' W 037°25'0 0.0 27.7
2014-Sep-12 21:44N 26°38' W 037°25'0 0.0 27.7
2014-Sep-12 19:40N 26°38' W 037°25'0 0.0 27.8
2014-Sep-12 18:50N 26°38' W 037°25'0 1.4 27.9
2014-Sep-12 18:45N 26°38' W 037°25'0 0.6 27.9
2014-Sep-12 17:56N 26°38' W 037°25'0 0.3 27.9
2014-Sep-12 17:25N 26°38' W 037°25'0 0.0 27.9
2014-Sep-12 15:47N 26°38' W 037°25'1 0.5 27.8
2014-Sep-12 14:01N 26°37' W 037°24'0 0.0 27.7
2014-Sep-12 13:54N 26°37' W 037°24'0 0.0 27.7
2014-Sep-12 13:08N 26°37' W 037°24'0 1.5 27.7
2014-Sep-12 12:57N 26°37' W 037°25'0 0.4 27.7
2014-Sep-12 12:11N 26°37' W 037°25'111.0 27.6
2014-Sep-12 12:06N 26°36' W 037°24'0 0.0 27.6
2014-Sep-12 11:26N 26°36' W 037°24'110.2 27.6
2014-Sep-12 11:19N 26°35' W 037°23'0 0.0 27.6
2014-Sep-12 10:31N 26°35' W 037°23'0 0.0 27.6
2014-Sep-12 10:25N 26°35' W 037°23'0 0.0
2014-Sep-12 09:45N 26°35' W 037°23'0 0.3 27.6
2014-Sep-12 09:08N 26°35' W 037°23'0 0.0 27.6
2014-Sep-12 08:18N 26°35' W 037°23'0 1.3 27.6
2014-Sep-12 08:07N 26°36' W 037°23'0 0.8 27.6
2014-Sep-12 07:32N 26°36' W 037°24'1 1.0 27.6
2014-Sep-12 06:38N 26°35' W 037°23'0 3.4 27.6
2014-Sep-12 06:32N 26°35' W 037°23'1 2.6 27.6
2014-Sep-12 06:06N 26°34' W 037°23'0 0.1 27.6
2014-Sep-12 04:23N 26°34' W 037°23'227.9 27.7
2014-Sep-12 04:19N 26°32' W 037°22'0 0.0 27.7
2014-Sep-12 01:28N 26°32' W 037°22'114.4 27.7
2014-Sep-12 01:25N 26°32' W 037°21'2 1.1 27.7
2014-Sep-11 23:52N 26°31' W 037°20'0 0.0 27.8
2014-Sep-11 22:52N 26°31' W 037°20'0 0.0 27.8
2014-Sep-11 22:34N 26°31' W 037°20'1 2.2 27.8
2014-Sep-11 22:09N 26°32' W 037°20'0 0.0 27.8
2014-Sep-11 22:06N 26°32' W 037°20'230.4 27.8
2014-Sep-11 22:03N 26°31' W 037°18'0 0.0 27.8
2014-Sep-11 20:48N 26°31' W 037°18'0 0.3 27.8
2014-Sep-11 19:53N 26°30' W 037°18'0 0.0 27.9
2014-Sep-11 19:14N 26°30' W 037°18'   27.9
Track history (hours):
 
Tides and Currents Weather Stations Pressure Air Temp Water Temp Dewpoint Dewpoint Depression Visibility Wind Speed Wind Dir Waves Ship Positions

Drifting buoy 13526

Last reported at 2014-Sep-21 18:26 UTC. Time now 2014-Sep-21 20:14 UTC.
Position N 27°02' W 038°02'.

Water temperature 28.2 ° C

Date/timePositionNaut miles runAvg speedWind from/ knotsBaromVisibWave heightAir tempDewpointWater temp
2014-Sep-21 18:26N 27°02' W 038°02'1 1.5 28.2
2014-Sep-21 18:00N 27°03' W 038°02'1 5.2 28.2
2014-Sep-21 17:54N 27°02' W 038°02'1 1.1 28.2
2014-Sep-21 17:26N 27°03' W 038°02'0 0.1 28.1
2014-Sep-21 15:48N 27°03' W 038°02'0 0.2 27.9
2014-Sep-21 14:07N 27°03' W 038°02'0 0.0 28.5
2014-Sep-21 14:04N 27°03' W 038°02'0 0.0 28.5
2014-Sep-21 13:20N 27°03' W 038°02'0 0.6 27.9
2014-Sep-21 13:15N 27°03' W 038°02'0 0.2 27.9
2014-Sep-21 12:24N 27°03' W 038°01'0 0.0 27.9
2014-Sep-21 12:18N 27°03' W 038°01'0 0.0 27.9
2014-Sep-21 11:40N 27°03' W 038°01'0 2.4 27.5
2014-Sep-21 11:35N 27°03' W 038°01'0 4.9 27.5
2014-Sep-21 11:32N 27°03' W 038°01'0 0.0 27.5
2014-Sep-21 10:46N 27°03' W 038°01'113.4 27.4
2014-Sep-21 10:42N 27°04' W 038°02'0 0.0 27.4
2014-Sep-21 10:00N 27°04' W 038°02'1 0.5 27.4
2014-Sep-21 08:54N 27°03' W 038°02'0 1.0 27.4
2014-Sep-21 08:47N 27°03' W 038°02'0 0.3 27.4
2014-Sep-21 08:17N 27°03' W 038°02'0 2.7 27.3
2014-Sep-21 08:10N 27°03' W 038°02'0 0.0 27.4
2014-Sep-21 07:10N 27°03' W 038°02'0 0.2 27.4
2014-Sep-21 06:42N 27°03' W 038°02'0 2.1 27.4
2014-Sep-21 06:36N 27°03' W 038°02'0 0.3 27.4
2014-Sep-21 06:07N 27°03' W 038°02'110.5 27.4
2014-Sep-21 06:03N 27°03' W 038°01'111.0 27.4
2014-Sep-21 05:59N 27°02' W 038°02'0 0.0 27.4
2014-Sep-21 04:24N 27°02' W 038°02'1 5.5 27.4
2014-Sep-21 04:17N 27°02' W 038°01'0 0.0 27.4
2014-Sep-21 01:40N 27°02' W 038°01'0 0.0 27.4
2014-Sep-21 00:54N 27°02' W 038°01'0 0.5 27.5
2014-Sep-21 00:05N 27°03' W 038°01'0 0.5 27.5
2014-Sep-20 23:16N 27°03' W 038°01'1 9.7 27.6
2014-Sep-20 23:10N 27°03' W 038°03'0 0.0 27.6
2014-Sep-20 22:49N 27°03' W 038°03'0 0.0 27.6
2014-Sep-20 22:24N 27°03' W 038°03'111.3 27.6
2014-Sep-20 22:19N 27°04' W 038°02'114.8 27.6
2014-Sep-20 22:13N 27°02' W 038°01'0 0.3
2014-Sep-20 20:32N 27°03' W 038°01'0 0.6 27.7
2014-Sep-20 19:52N 27°02' W 038°01'0 1.1 27.9
2014-Sep-20 19:34N 27°02' W 038°01'1 0.8 27.9
2014-Sep-20 18:52N 27°02' W 038°02'1 1.0 27.9
2014-Sep-20 18:10N 27°02' W 038°01'1 1.4 27.9
2014-Sep-20 17:39N 27°02' W 038°01'0 0.3 28.0
2014-Sep-20 15:56N 27°02' W 038°00'0 0.3 27.7
2014-Sep-20 14:24N 27°02' W 038°00'0 0.4 27.6
2014-Sep-20 14:16N 27°02' W 037°60'0 0.0 27.6
2014-Sep-20 13:40N 27°02' W 037°60'0 1.4 27.6
2014-Sep-20 13:32N 27°02' W 037°60'0 0.0 27.6
2014-Sep-20 12:44N 27°02' W 037°60'0 6.0 27.4
2014-Sep-20 12:41N 27°02' W 037°60'0 0.0 27.4
2014-Sep-20 12:38N 27°02' W 037°60'0 0.0 27.4
2014-Sep-20 11:55N 27°02' W 037°60'0 9.6 27.4
2014-Sep-20 11:52N 27°02' W 037°60'0 0.1 27.4
2014-Sep-20 11:05N 27°02' W 037°59'112.9 27.3
2014-Sep-20 11:02N 27°02' W 037°60'0 0.1 27.3
2014-Sep-20 09:16N 27°02' W 037°60'0 0.0 27.3
2014-Sep-20 09:08N 27°02' W 037°60'0 0.8 27.3
2014-Sep-20 08:54N 27°02' W 037°60'0 0.3 27.3
2014-Sep-20 08:24N 27°02' W 038°00'0 0.5 27.3
2014-Sep-20 07:33N 27°02' W 038°01'0 0.4 27.4
2014-Sep-20 07:15N 27°02' W 038°01'1 1.8 27.4
2014-Sep-20 06:49N 27°02' W 037°60'0 3.2 27.4
2014-Sep-20 06:44N 27°02' W 037°60'0 5.8 27.4
2014-Sep-20 06:41N 27°02' W 037°60'0 0.0 27.4
2014-Sep-20 06:18N 27°02' W 037°60'0 0.2 27.4
2014-Sep-20 04:35N 27°02' W 037°59'0 4.4 27.4
2014-Sep-20 04:31N 27°02' W 037°59'0 0.0 27.4
2014-Sep-20 02:53N 27°02' W 037°59'0 0.0 27.4
2014-Sep-20 00:24N 27°02' W 037°59'0 0.1 27.5
2014-Sep-19 23:38N 27°02' W 037°59'0 3.4 27.6
2014-Sep-19 23:32N 27°02' W 037°60'0 0.0 27.6
2014-Sep-19 22:46N 27°02' W 037°60'0 3.4 27.6
2014-Sep-19 22:40N 27°02' W 037°59'0 0.0 27.6
2014-Sep-19 22:35N 27°02' W 037°59'1 0.3 27.6
2014-Sep-19 20:55N 27°01' W 037°59'0 0.2 27.7
2014-Sep-19 20:03N 27°02' W 037°59'0 0.0 27.8
2014-Sep-19 19:56N 27°02' W 037°59'0 0.3 27.9
2014-Sep-19 19:16N 27°02' W 037°59'0 0.0 27.9
2014-Sep-19 18:24N 27°02' W 037°59'1 2.0 28.0
2014-Sep-19 17:50N 27°01' W 037°60'0 1.3 28.1
2014-Sep-19 17:31N 27°01' W 038°00'0 0.0 28.1
2014-Sep-19 16:10N 27°01' W 038°00'1 0.8 27.9
2014-Sep-19 14:27N 27°02' W 037°59'0 0.0 27.7
2014-Sep-19 13:57N 27°02' W 037°59'0 0.0
2014-Sep-19 12:23N 27°02' W 037°59'1 0.6 27.4
2014-Sep-19 11:25N 27°02' W 037°58'123.9 27.3
2014-Sep-19 11:22N 27°03' W 037°57'0 0.0 27.3
2014-Sep-19 09:41N 27°03' W 037°57'111.0 27.3
2014-Sep-19 09:36N 27°02' W 037°58'0 1.5 27.3
2014-Sep-19 09:25N 27°02' W 037°58'0 0.5 27.3
2014-Sep-19 08:39N 27°02' W 037°58'0 3.9 27.3
2014-Sep-19 08:35N 27°02' W 037°58'0 0.0 27.3
2014-Sep-19 07:46N 27°02' W 037°58'0 0.1 27.3
2014-Sep-19 07:04N 27°02' W 037°58'0 2.4 27.3
2014-Sep-19 06:57N 27°02' W 037°58'0 0.7 27.3
2014-Sep-19 06:26N 27°02' W 037°58'1 6.8 27.3
2014-Sep-19 06:21N 27°02' W 037°57'1 0.4 27.3
2014-Sep-19 04:51N 27°02' W 037°58'1 5.6 27.3
2014-Sep-19 04:45N 27°02' W 037°57'0 0.0 27.3
2014-Sep-19 04:39N 27°02' W 037°57'0 0.0 27.3
2014-Sep-19 03:05N 27°02' W 037°57'0 0.0 27.4
2014-Sep-19 00:46N 27°02' W 037°57'0 0.5 27.4
2014-Sep-18 23:55N 27°02' W 037°57'112.3 27.4
2014-Sep-18 23:52N 27°02' W 037°57'0 0.0 27.4
2014-Sep-18 23:06N 27°02' W 037°57'0 1.2 27.5
2014-Sep-18 23:00N 27°02' W 037°57'0 0.5 27.5
2014-Sep-18 22:15N 27°02' W 037°57'1 8.7 27.6
2014-Sep-18 22:11N 27°02' W 037°57'1 0.7 27.6
2014-Sep-18 21:19N 27°02' W 037°58'0 0.0 27.6
2014-Sep-18 20:26N 27°02' W 037°58'0 0.0 27.6
2014-Sep-18 20:11N 27°02' W 037°58'0 0.0 27.6
2014-Sep-18 19:40N 27°02' W 037°58'0 0.0 27.7
2014-Sep-18 18:34N 27°02' W 037°58'2 4.0 27.9
2014-Sep-18 17:59N 27°02' W 037°55'122.2 27.8
2014-Sep-18 17:56N 27°02' W 037°57'1 1.0 27.8
2014-Sep-18 16:52N 27°02' W 037°55'0 0.3 27.8
2014-Sep-18 16:21N 27°02' W 037°56'0 0.1 27.8
2014-Sep-18 14:40N 27°02' W 037°56'0 0.2 27.6
2014-Sep-18 12:37N 27°02' W 037°55'0 1.2 27.4
2014-Sep-18 12:33N 27°02' W 037°55'0 0.1 27.4
2014-Sep-18 11:47N 27°02' W 037°55'0 1.7 27.4
2014-Sep-18 11:40N 27°02' W 037°55'0 0.0
2014-Sep-18 11:02N 27°02' W 037°55'0 2.0 27.3
2014-Sep-18 10:56N 27°01' W 037°55'1 0.9 27.3
2014-Sep-18 10:02N 27°02' W 037°54'1 6.7 27.3
2014-Sep-18 09:55N 27°01' W 037°55'1 0.8 27.3
2014-Sep-18 08:53N 27°02' W 037°54'0 2.8 27.3
2014-Sep-18 08:46N 27°02' W 037°54'0 0.8 27.3
2014-Sep-18 08:18N 27°02' W 037°54'0 0.3 27.3
2014-Sep-18 07:11N 27°02' W 037°54'1 1.2 27.4
2014-Sep-18 06:38N 27°02' W 037°54'0 0.0 27.4
2014-Sep-18 05:29N 27°02' W 037°54'0 0.0 27.4
2014-Sep-18 04:56N 27°02' W 037°54'1 6.6 27.4
2014-Sep-18 04:51N 27°03' W 037°53'0 0.0 27.4
2014-Sep-18 03:18N 27°03' W 037°53'0 0.0 27.4
2014-Sep-18 03:10N 27°03' W 037°53'0 0.0 27.4
2014-Sep-18 01:03N 27°03' W 037°53'115.7 27.4
2014-Sep-18 01:01N 27°02' W 037°53'0 0.1 27.4
2014-Sep-18 00:18N 27°02' W 037°53'0 0.0 27.4
2014-Sep-17 23:24N 27°02' W 037°53'0 0.0
2014-Sep-17 23:23N 27°02' W 037°53'0 0.0 27.5
2014-Sep-17 23:21N 27°02' W 037°53'123.4 27.5
2014-Sep-17 23:18N 27°03' W 037°54'0 0.0 27.5
2014-Sep-17 22:43N 27°03' W 037°54'217.5 27.5
2014-Sep-17 22:37N 27°02' W 037°52'0 0.0 27.5
2014-Sep-17 22:32N 27°02' W 037°52'1 1.1 27.5
2014-Sep-17 21:42N 27°01' W 037°52'0 0.0 27.5
2014-Sep-17 20:56N 27°01' W 037°52'1 2.5
2014-Sep-17 20:22N 27°02' W 037°54'0 0.0 27.6
2014-Sep-17 20:05N 27°02' W 037°54'0 0.0 27.6
2014-Sep-17 18:45N 27°02' W 037°54'0 0.0 27.6
2014-Sep-17 18:25N 27°02' W 037°54'1 2.8 27.6
2014-Sep-17 18:10N 27°01' W 037°53'0 0.2 27.6
2014-Sep-17 17:04N 27°01' W 037°53'1 2.1 27.6
2014-Sep-17 16:34N 27°01' W 037°52'1 0.6 27.6
2014-Sep-17 14:51N 27°00' W 037°51'0 0.0 27.6
2014-Sep-17 13:49N 27°00' W 037°51'0 0.0 27.5
2014-Sep-17 13:02N 27°00' W 037°51'1 0.8 27.5
2014-Sep-17 12:10N 27°00' W 037°51'0 0.0 27.5
2014-Sep-17 12:08N 27°00' W 037°51'0 2.2 27.5
2014-Sep-17 12:02N 27°00' W 037°50'0 0.0 27.5
2014-Sep-17 11:21N 27°00' W 037°50'117.7 27.4
2014-Sep-17 11:16N 27°00' W 037°49'0 0.1 27.4
2014-Sep-17 09:01N 27°00' W 037°49'0 0.8 27.5
2014-Sep-17 08:49N 27°00' W 037°49'0 3.2 27.5
2014-Sep-17 08:46N 27°00' W 037°49'0 0.0 27.5
2014-Sep-17 07:23N 27°00' W 037°49'0 5.8 27.5
2014-Sep-17 07:18N 27°00' W 037°48'0 3.2 27.5
2014-Sep-17 07:09N 27°00' W 037°49'029.1 27.5
2014-Sep-17 07:08N 27°00' W 037°48'0 0.0 27.5
2014-Sep-17 06:48N 27°00' W 037°48'0 0.1 27.5
2014-Sep-17 05:40N 27°00' W 037°48'0 0.9 27.6
2014-Sep-17 05:10N 27°00' W 037°49'1 6.0 27.6
2014-Sep-17 05:02N 27°00' W 037°48'0 0.0 27.6
2014-Sep-17 03:28N 27°00' W 037°48'0 0.0 27.6
2014-Sep-17 03:22N 27°00' W 037°48'0 0.0 27.6
2014-Sep-17 01:26N 27°00' W 037°48'0 0.0 27.6
2014-Sep-17 01:21N 27°00' W 037°48'0 0.0 27.6
2014-Sep-16 23:45N 27°00' W 037°48'0 0.3 27.6
2014-Sep-16 22:52N 26°60' W 037°48'0 0.0
2014-Sep-16 22:05N 26°60' W 037°48'0 7.2 27.6
2014-Sep-16 22:02N 27°00' W 037°48'0 0.0 27.6
2014-Sep-16 21:39N 27°00' W 037°48'1 1.1 27.6
2014-Sep-16 20:30N 26°59' W 037°47'0 0.0 27.6
2014-Sep-16 19:52N 26°59' W 037°47'0 0.2 27.6
2014-Sep-16 18:56N 26°59' W 037°47'0 1.7 27.7
2014-Sep-16 18:50N 26°59' W 037°47'1 0.5 27.7
2014-Sep-16 17:15N 26°58' W 037°47'0 0.0 27.7
2014-Sep-16 16:44N 26°58' W 037°47'2 1.3 27.7
2014-Sep-16 15:00N 26°57' W 037°45'0 0.0 27.6
2014-Sep-16 14:08N 26°57' W 037°45'0 0.0 27.6
2014-Sep-16 13:24N 26°57' W 037°45'0 0.0 27.6
2014-Sep-16 13:21N 26°57' W 037°45'1 0.9 27.6
2014-Sep-16 12:25N 26°57' W 037°45'112.9 27.6
2014-Sep-16 12:22N 26°56' W 037°44'1 1.3 27.6
2014-Sep-16 11:36N 26°56' W 037°45'0 0.0 27.6
2014-Sep-16 10:47N 26°56' W 037°45'120.4 27.6
2014-Sep-16 10:44N 26°56' W 037°44'0 0.0 27.6
2014-Sep-16 09:20N 26°56' W 037°44'1 3.9 27.6
2014-Sep-16 09:09N 26°56' W 037°44'0 0.0 27.6
2014-Sep-16 07:40N 26°56' W 037°44'0 3.6 27.6
2014-Sep-16 07:34N 26°56' W 037°44'119.6 27.6
2014-Sep-16 07:31N 26°56' W 037°43'0 0.0 27.6
2014-Sep-16 05:53N 26°56' W 037°43'0 3.6 27.6
2014-Sep-16 05:45N 26°56' W 037°42'0 0.0
2014-Sep-16 05:19N 26°56' W 037°42'1 9.6 27.7
2014-Sep-16 05:14N 26°55' W 037°42'0 0.0 27.7
2014-Sep-16 03:38N 26°55' W 037°42'1 0.4 27.7
2014-Sep-16 01:43N 26°56' W 037°41'0 0.0 27.7
2014-Sep-16 00:57N 26°56' W 037°41'0 0.0 27.7
2014-Sep-16 00:54N 26°56' W 037°41'0 0.0 27.7
2014-Sep-16 00:08N 26°56' W 037°41'1 0.9 27.7
2014-Sep-15 23:19N 26°55' W 037°41'2 9.5 27.8
2014-Sep-15 23:08N 26°56' W 037°43'0 0.0 27.8
2014-Sep-15 22:27N 26°56' W 037°43'232.1 27.8
2014-Sep-15 22:24N 26°56' W 037°41'0 0.0 27.8
2014-Sep-15 22:10N 26°56' W 037°41'0 0.2 27.8
2014-Sep-15 20:53N 26°56' W 037°42'0 0.0 27.9
2014-Sep-15 20:21N 26°56' W 037°42'1 0.7 27.9
2014-Sep-15 19:09N 26°55' W 037°43'110.3 28.0
2014-Sep-15 19:03N 26°55' W 037°42'0 0.0 28.0
2014-Sep-15 17:26N 26°55' W 037°42'0 0.0 28.1
2014-Sep-15 16:54N 26°55' W 037°42'1 0.5 28.1
2014-Sep-15 15:10N 26°54' W 037°42'1 0.5 28.1
2014-Sep-15 13:44N 26°53' W 037°42'0 3.2 28.0
2014-Sep-15 13:41N 26°53' W 037°42'0 0.4 27.9
2014-Sep-15 12:47N 26°53' W 037°41'0 0.2 27.8
2014-Sep-15 12:06N 26°53' W 037°41'0 0.6 27.7
2014-Sep-15 12:01N 26°53' W 037°41'0 3.9 27.7
2014-Sep-15 11:56N 26°53' W 037°41'0 0.0 27.7
2014-Sep-15 11:10N 26°53' W 037°41'0 1.6 27.6
2014-Sep-15 11:06N 26°53' W 037°41'1 0.8 27.6
2014-Sep-15 09:51N 26°52' W 037°41'1 3.6 27.6
2014-Sep-15 09:38N 26°52' W 037°41'114.1 27.6
2014-Sep-15 09:34N 26°52' W 037°40'0 0.0 27.6
2014-Sep-15 09:23N 26°52' W 037°40'0 0.0 27.6
2014-Sep-15 07:56N 26°52' W 037°40'0 0.5 27.6
2014-Sep-15 07:42N 26°52' W 037°39'1 8.5 27.6
2014-Sep-15 07:37N 26°51' W 037°39'0 0.0 27.6
2014-Sep-15 06:30N 26°51' W 037°39'0 0.0 27.7
2014-Sep-15 06:08N 26°51' W 037°39'0 1.1 27.7
2014-Sep-15 06:05N 26°51' W 037°39'0 5.0 27.7
2014-Sep-15 05:59N 26°51' W 037°38'0 0.0 27.7
2014-Sep-15 05:30N 26°51' W 037°38'1 7.6 27.7
2014-Sep-15 05:25N 26°51' W 037°38'0 0.0 27.7
2014-Sep-15 03:53N 26°51' W 037°38'121.6 27.8
2014-Sep-15 03:50N 26°51' W 037°37'0 0.0 27.8
2014-Sep-15 03:46N 26°51' W 037°37'0 0.0 27.8
2014-Sep-15 01:15N 26°51' W 037°37'0 0.0 28.1
2014-Sep-15 00:29N 26°51' W 037°37'0 0.3 28.2
2014-Sep-14 23:40N 26°51' W 037°38'0 0.8 28.2
2014-Sep-14 23:36N 26°51' W 037°38'0 0.4 28.2
2014-Sep-14 22:48N 26°51' W 037°38'213.2 28.2
2014-Sep-14 22:41N 26°51' W 037°36'0 0.5
2014-Sep-14 21:55N 26°51' W 037°37'1 0.8 28.2
2014-Sep-14 21:16N 26°51' W 037°37'1 2.7 28.2
2014-Sep-14 20:56N 26°51' W 037°36'1 0.7 28.2
2014-Sep-14 19:40N 26°51' W 037°37'0 0.4 28.6
2014-Sep-14 19:20N 26°51' W 037°37'1 0.7 28.6
2014-Sep-14 17:58N 26°50' W 037°37'0 8.0 28.6
2014-Sep-14 17:55N 26°50' W 037°38'0 0.0 28.8
2014-Sep-14 17:39N 26°50' W 037°38'1 1.6 28.9
2014-Sep-14 17:03N 26°49' W 037°38'0 0.0 28.9
2014-Sep-14 15:25N 26°49' W 037°38'2 1.2 28.5
2014-Sep-14 13:56N 26°48' W 037°36'1 0.8
2014-Sep-14 13:10N 26°48' W 037°37'0 0.5 27.7
2014-Sep-14 12:21N 26°48' W 037°36'1 1.3 27.6
2014-Sep-14 11:26N 26°47' W 037°36'0 0.0 27.5
2014-Sep-14 10:35N 26°47' W 037°36'0 0.0 27.5
2014-Sep-14 09:59N 26°47' W 037°36'0 0.2 27.5
2014-Sep-14 08:20N 26°47' W 037°35'0 0.2 27.5
2014-Sep-14 07:54N 26°47' W 037°36'1 0.8 27.5
2014-Sep-14 07:04N 26°46' W 037°35'0 0.7 27.5
2014-Sep-14 06:42N 26°46' W 037°35'0 2.0 27.5
2014-Sep-14 06:38N 26°46' W 037°35'0 0.0 27.5
2014-Sep-14 06:19N 26°46' W 037°35'0 6.7 27.5
2014-Sep-14 06:15N 26°46' W 037°35'110.1 27.5
2014-Sep-14 06:10N 26°46' W 037°35'0 0.3 27.5
2014-Sep-14 05:41N 26°46' W 037°35'111.1 27.5
2014-Sep-14 05:36N 26°46' W 037°34'0 0.0 27.5
2014-Sep-14 04:04N 26°46' W 037°34'0 2.4 27.6
2014-Sep-14 03:57N 26°46' W 037°34'250.6 27.6
2014-Sep-14 03:55N 26°45' W 037°33'0 0.0 27.6
2014-Sep-14 00:48N 26°45' W 037°33'0 0.6 27.6
2014-Sep-14 00:02N 26°45' W 037°32'0 3.3 27.6
2014-Sep-13 23:53N 26°45' W 037°33'0 0.0
2014-Sep-13 23:10N 26°45' W 037°33'0 2.9 27.6
2014-Sep-13 23:05N 26°45' W 037°33'113.6
2014-Sep-13 23:02N 26°45' W 037°32'0 0.0 27.6
2014-Sep-13 22:58N 26°45' W 037°32'0 0.0
2014-Sep-13 22:18N 26°45' W 037°32'0 0.0 27.6
2014-Sep-13 21:33N 26°45' W 037°32'1 0.4 27.6
2014-Sep-13 20:04N 26°45' W 037°33'0 0.0 27.6
2014-Sep-13 19:46N 26°45' W 037°33'0 0.0 27.6
2014-Sep-13 19:31N 26°45' W 037°33'0 0.0 27.6
2014-Sep-13 18:23N 26°45' W 037°33'0 0.0 27.6
2014-Sep-13 18:20N 26°45' W 037°33'1 1.4 27.6
2014-Sep-13 17:51N 26°44' W 037°32'0 0.4 27.6
2014-Sep-13 17:16N 26°44' W 037°32'0 2.8 27.6
2014-Sep-13 17:10N 26°44' W 037°32'1 0.6 27.6
2014-Sep-13 15:36N 26°44' W 037°33'2 0.5 27.6
2014-Sep-13 11:51N 26°42' W 037°31'1 7.2 27.6
2014-Sep-13 11:46N 26°43' W 037°32'1 1.0 27.6
2014-Sep-13 11:05N 26°42' W 037°31'0 8.0 27.6
2014-Sep-13 11:02N 26°43' W 037°31'114.1 27.6
2014-Sep-13 10:57N 26°42' W 037°30'0 0.1
2014-Sep-13 09:10N 26°42' W 037°31'1 1.5 27.6
2014-Sep-13 08:44N 26°41' W 037°30'0 0.3 27.6
2014-Sep-13 08:02N 26°41' W 037°30'0 0.0 27.6
2014-Sep-13 07:35N 26°41' W 037°30'1 1.2 27.6
2014-Sep-13 07:09N 26°41' W 037°31'2 1.3 27.6
2014-Sep-13 05:52N 26°41' W 037°29'1 8.3 27.6
2014-Sep-13 05:47N 26°40' W 037°29'0 0.0 27.6
2014-Sep-13 04:11N 26°40' W 037°29'218.9 27.6
2014-Sep-13 04:06N 26°39' W 037°29'0 0.0 27.6
2014-Sep-13 01:08N 26°39' W 037°29'123.5 27.7
2014-Sep-13 01:05N 26°38' W 037°28'0 0.6 27.7
2014-Sep-13 00:22N 26°38' W 037°28'0 0.0 27.7
2014-Sep-12 23:30N 26°38' W 037°28'224.7 27.7
2014-Sep-12 23:24N 26°38' W 037°25'0 0.0 27.7
2014-Sep-12 23:21N 26°38' W 037°25'0 0.0 27.7
2014-Sep-12 22:41N 26°38' W 037°25'0 0.5 27.7
2014-Sep-12 21:57N 26°38' W 037°25'0 0.0 27.7
2014-Sep-12 21:44N 26°38' W 037°25'0 0.0 27.7
2014-Sep-12 19:40N 26°38' W 037°25'0 0.0 27.8
2014-Sep-12 18:50N 26°38' W 037°25'0 1.4 27.9
2014-Sep-12 18:45N 26°38' W 037°25'0 0.6 27.9
2014-Sep-12 17:56N 26°38' W 037°25'0 0.3 27.9
2014-Sep-12 17:25N 26°38' W 037°25'0 0.0 27.9
2014-Sep-12 15:47N 26°38' W 037°25'1 0.5 27.8
2014-Sep-12 14:01N 26°37' W 037°24'0 0.0 27.7
2014-Sep-12 13:54N 26°37' W 037°24'0 0.0 27.7
2014-Sep-12 13:08N 26°37' W 037°24'0 1.5 27.7
2014-Sep-12 12:57N 26°37' W 037°25'0 0.4 27.7
2014-Sep-12 12:11N 26°37' W 037°25'111.0 27.6
2014-Sep-12 12:06N 26°36' W 037°24'0 0.0 27.6
2014-Sep-12 11:26N 26°36' W 037°24'110.2 27.6
2014-Sep-12 11:19N 26°35' W 037°23'0 0.0 27.6
2014-Sep-12 10:31N 26°35' W 037°23'0 0.0 27.6
2014-Sep-12 10:25N 26°35' W 037°23'0 0.0
2014-Sep-12 09:45N 26°35' W 037°23'0 0.3 27.6
2014-Sep-12 09:08N 26°35' W 037°23'0 0.0 27.6
2014-Sep-12 08:18N 26°35' W 037°23'0 1.3 27.6
2014-Sep-12 08:07N 26°36' W 037°23'0 0.8 27.6
2014-Sep-12 07:32N 26°36' W 037°24'1 1.0 27.6
2014-Sep-12 06:38N 26°35' W 037°23'0 3.4 27.6
2014-Sep-12 06:32N 26°35' W 037°23'1 2.6 27.6
2014-Sep-12 06:06N 26°34' W 037°23'0 0.1 27.6
2014-Sep-12 04:23N 26°34' W 037°23'227.9 27.7
2014-Sep-12 04:19N 26°32' W 037°22'0 0.0 27.7
2014-Sep-12 01:28N 26°32' W 037°22'114.4 27.7
2014-Sep-12 01:25N 26°32' W 037°21'2 1.1 27.7
2014-Sep-11 23:52N 26°31' W 037°20'0 0.0 27.8
2014-Sep-11 22:52N 26°31' W 037°20'0 0.0 27.8
2014-Sep-11 22:34N 26°31' W 037°20'1 2.2 27.8
2014-Sep-11 22:09N 26°32' W 037°20'0 0.0 27.8
2014-Sep-11 22:06N 26°32' W 037°20'230.4 27.8
2014-Sep-11 22:03N 26°31' W 037°18'0 0.0 27.8
2014-Sep-11 20:48N 26°31' W 037°18'0 0.3 27.8
2014-Sep-11 19:53N 26°30' W 037°18'0 0.0 27.9
2014-Sep-11 19:14N 26°30' W 037°18'   27.9

Dump ship's entire track history